sensor_id;sensor_type;location;lat;lon;timestamp;P1;durP1;ratioP1;P2;durP2;ratioP2
52368;SDS011;38298;50.346;3.526;2022-09-09T00:03:35;2.95;;;0.73;;
52368;SDS011;38298;50.346;3.526;2022-09-09T00:06:08;1.83;;;0.50;;
52368;SDS011;38298;50.346;3.526;2022-09-09T00:08:51;1.58;;;0.60;;
52368;SDS011;38298;50.346;3.526;2022-09-09T00:11:23;3.10;;;0.85;;
52368;SDS011;38298;50.346;3.526;2022-09-09T00:13:52;2.92;;;0.80;;
52368;SDS011;38298;50.346;3.526;2022-09-09T00:18:56;4.30;;;0.73;;
52368;SDS011;38298;50.346;3.526;2022-09-09T00:21:30;7.72;;;0.88;;
52368;SDS011;38298;50.346;3.526;2022-09-09T00:23:58;6.28;;;0.95;;
52368;SDS011;38298;50.346;3.526;2022-09-09T00:26:35;2.13;;;0.98;;
52368;SDS011;38298;50.346;3.526;2022-09-09T00:29:14;3.47;;;0.70;;
52368;SDS011;38298;50.346;3.526;2022-09-09T00:31:45;3.15;;;0.70;;
52368;SDS011;38298;50.346;3.526;2022-09-09T00:34:13;5.40;;;0.90;;
52368;SDS011;38298;50.346;3.526;2022-09-09T00:36:41;5.20;;;0.68;;
52368;SDS011;38298;50.346;3.526;2022-09-09T00:39:15;3.75;;;0.93;;
52368;SDS011;38298;50.346;3.526;2022-09-09T00:41:58;9.65;;;1.33;;
52368;SDS011;38298;50.346;3.526;2022-09-09T00:44:32;4.97;;;1.52;;
52368;SDS011;38298;50.346;3.526;2022-09-09T00:52:59;3.45;;;0.63;;
52368;SDS011;38298;50.346;3.526;2022-09-09T00:55:11;4.30;;;0.95;;
52368;SDS011;38298;50.346;3.526;2022-09-09T00:57:40;7.38;;;1.17;;
52368;SDS011;38298;50.346;3.526;2022-09-09T01:00:26;7.35;;;1.17;;
52368;SDS011;38298;50.346;3.526;2022-09-09T01:08:06;7.22;;;1.00;;
52368;SDS011;38298;50.346;3.526;2022-09-09T01:10:52;6.50;;;1.05;;
52368;SDS011;38298;50.346;3.526;2022-09-09T01:13:23;4.13;;;1.10;;
52368;SDS011;38298;50.346;3.526;2022-09-09T01:15:50;7.20;;;0.80;;
52368;SDS011;38298;50.346;3.526;2022-09-09T01:18:19;6.68;;;1.90;;
52368;SDS011;38298;50.346;3.526;2022-09-09T01:21:02;7.75;;;1.10;;
52368;SDS011;38298;50.346;3.526;2022-09-09T01:28:42;8.70;;;1.30;;
52368;SDS011;38298;50.346;3.526;2022-09-09T01:31:10;4.03;;;1.15;;
52368;SDS011;38298;50.346;3.526;2022-09-09T01:33:37;5.03;;;1.17;;
52368;SDS011;38298;50.346;3.526;2022-09-09T01:36:05;4.55;;;0.88;;
52368;SDS011;38298;50.346;3.526;2022-09-09T01:38:32;6.53;;;1.08;;
52368;SDS011;38298;50.346;3.526;2022-09-09T01:40:59;9.65;;;1.27;;
52368;SDS011;38298;50.346;3.526;2022-09-09T01:43:25;4.80;;;0.80;;
52368;SDS011;38298;50.346;3.526;2022-09-09T01:45:52;6.10;;;0.80;;
52368;SDS011;38298;50.346;3.526;2022-09-09T01:48:20;12.02;;;1.33;;
52368;SDS011;38298;50.346;3.526;2022-09-09T01:50:47;7.95;;;1.13;;
52368;SDS011;38298;50.346;3.526;2022-09-09T01:53:13;8.95;;;1.08;;
52368;SDS011;38298;50.346;3.526;2022-09-09T01:55:40;6.20;;;0.80;;
52368;SDS011;38298;50.346;3.526;2022-09-09T02:00:40;4.78;;;1.10;;
52368;SDS011;38298;50.346;3.526;2022-09-09T02:08:06;7.50;;;1.20;;
52368;SDS011;38298;50.346;3.526;2022-09-09T02:10:33;4.35;;;1.13;;
52368;SDS011;38298;50.346;3.526;2022-09-09T02:13:04;3.83;;;1.00;;
52368;SDS011;38298;50.346;3.526;2022-09-09T02:15:39;5.70;;;0.80;;
52368;SDS011;38298;50.346;3.526;2022-09-09T02:18:08;7.05;;;1.40;;
52368;SDS011;38298;50.346;3.526;2022-09-09T02:20:36;3.75;;;1.25;;
52368;SDS011;38298;50.346;3.526;2022-09-09T02:23:04;4.65;;;0.98;;
52368;SDS011;38298;50.346;3.526;2022-09-09T02:25:49;9.32;;;1.17;;
52368;SDS011;38298;50.346;3.526;2022-09-09T02:28:16;5.18;;;1.30;;
52368;SDS011;38298;50.346;3.526;2022-09-09T02:30:44;8.75;;;1.55;;
52368;SDS011;38298;50.346;3.526;2022-09-09T02:33:12;9.85;;;1.15;;
52368;SDS011;38298;50.346;3.526;2022-09-09T02:35:39;9.30;;;1.15;;
52368;SDS011;38298;50.346;3.526;2022-09-09T02:38:10;8.20;;;1.13;;
52368;SDS011;38298;50.346;3.526;2022-09-09T02:40:37;8.93;;;1.10;;
52368;SDS011;38298;50.346;3.526;2022-09-09T02:43:03;6.32;;;0.80;;
52368;SDS011;38298;50.346;3.526;2022-09-09T02:45:33;9.23;;;1.23;;
52368;SDS011;38298;50.346;3.526;2022-09-09T02:50:34;11.57;;;1.50;;
52368;SDS011;38298;50.346;3.526;2022-09-09T02:53:16;9.63;;;1.08;;
52368;SDS011;38298;50.346;3.526;2022-09-09T02:55:46;11.43;;;1.40;;
52368;SDS011;38298;50.346;3.526;2022-09-09T02:58:16;4.07;;;1.00;;
52368;SDS011;38298;50.346;3.526;2022-09-09T03:00:45;9.88;;;1.38;;
52368;SDS011;38298;50.346;3.526;2022-09-09T03:03:11;6.57;;;1.65;;
52368;SDS011;38298;50.346;3.526;2022-09-09T03:05:38;10.98;;;1.48;;
52368;SDS011;38298;50.346;3.526;2022-09-09T03:08:04;6.95;;;1.00;;
52368;SDS011;38298;50.346;3.526;2022-09-09T03:10:31;8.35;;;1.33;;
52368;SDS011;38298;50.346;3.526;2022-09-09T03:12:57;8.13;;;1.08;;
52368;SDS011;38298;50.346;3.526;2022-09-09T03:15:24;8.73;;;1.10;;
52368;SDS011;38298;50.346;3.526;2022-09-09T03:17:55;11.90;;;1.65;;
52368;SDS011;38298;50.346;3.526;2022-09-09T03:20:22;6.30;;;1.20;;
52368;SDS011;38298;50.346;3.526;2022-09-09T03:22:48;7.80;;;0.93;;
52368;SDS011;38298;50.346;3.526;2022-09-09T03:25:14;9.20;;;1.33;;
52368;SDS011;38298;50.346;3.526;2022-09-09T03:27:40;7.30;;;1.05;;
52368;SDS011;38298;50.346;3.526;2022-09-09T03:30:06;9.00;;;1.30;;
52368;SDS011;38298;50.346;3.526;2022-09-09T03:32:33;8.63;;;1.15;;
52368;SDS011;38298;50.346;3.526;2022-09-09T03:34:59;9.30;;;1.75;;
52368;SDS011;38298;50.346;3.526;2022-09-09T03:37:25;12.30;;;1.35;;
52368;SDS011;38298;50.346;3.526;2022-09-09T03:39:51;11.45;;;1.25;;
52368;SDS011;38298;50.346;3.526;2022-09-09T03:42:19;9.63;;;1.15;;
52368;SDS011;38298;50.346;3.526;2022-09-09T03:44:46;7.53;;;1.27;;
52368;SDS011;38298;50.346;3.526;2022-09-09T03:47:14;7.82;;;1.42;;
52368;SDS011;38298;50.346;3.526;2022-09-09T03:49:40;7.03;;;1.17;;
52368;SDS011;38298;50.346;3.526;2022-09-09T03:52:08;7.50;;;1.27;;
52368;SDS011;38298;50.346;3.526;2022-09-09T03:54:34;8.93;;;1.50;;
52368;SDS011;38298;50.346;3.526;2022-09-09T03:57:00;18.13;;;1.67;;
52368;SDS011;38298;50.346;3.526;2022-09-09T03:59:26;5.82;;;1.02;;
52368;SDS011;38298;50.346;3.526;2022-09-09T04:01:53;9.48;;;1.38;;
52368;SDS011;38298;50.346;3.526;2022-09-09T04:04:19;12.40;;;1.52;;
52368;SDS011;38298;50.346;3.526;2022-09-09T04:06:46;9.60;;;1.52;;
52368;SDS011;38298;50.346;3.526;2022-09-09T04:09:13;7.38;;;1.10;;
52368;SDS011;38298;50.346;3.526;2022-09-09T04:11:39;7.80;;;1.90;;
52368;SDS011;38298;50.346;3.526;2022-09-09T04:14:05;4.90;;;1.00;;
52368;SDS011;38298;50.346;3.526;2022-09-09T04:16:32;6.25;;;0.95;;
52368;SDS011;38298;50.346;3.526;2022-09-09T04:18:58;7.32;;;1.30;;
52368;SDS011;38298;50.346;3.526;2022-09-09T04:21:26;5.13;;;1.08;;
52368;SDS011;38298;50.346;3.526;2022-09-09T04:23:52;8.82;;;1.58;;
52368;SDS011;38298;50.346;3.526;2022-09-09T04:26:18;12.75;;;2.13;;
52368;SDS011;38298;50.346;3.526;2022-09-09T04:28:45;14.00;;;1.70;;
52368;SDS011;38298;50.346;3.526;2022-09-09T04:31:20;6.35;;;1.45;;
52368;SDS011;38298;50.346;3.526;2022-09-09T04:33:51;8.40;;;1.30;;
52368;SDS011;38298;50.346;3.526;2022-09-09T04:36:17;9.13;;;1.13;;
52368;SDS011;38298;50.346;3.526;2022-09-09T04:38:44;11.23;;;1.40;;
52368;SDS011;38298;50.346;3.526;2022-09-09T04:41:11;10.15;;;1.63;;
52368;SDS011;38298;50.346;3.526;2022-09-09T04:43:37;8.45;;;1.15;;
52368;SDS011;38298;50.346;3.526;2022-09-09T04:46:04;10.55;;;1.20;;
52368;SDS011;38298;50.346;3.526;2022-09-09T04:48:30;9.23;;;1.27;;
52368;SDS011;38298;50.346;3.526;2022-09-09T04:51:03;7.10;;;1.13;;
52368;SDS011;38298;50.346;3.526;2022-09-09T04:53:30;11.05;;;1.42;;
52368;SDS011;38298;50.346;3.526;2022-09-09T04:56:06;7.43;;;1.40;;
52368;SDS011;38298;50.346;3.526;2022-09-09T04:58:32;9.55;;;1.83;;
52368;SDS011;38298;50.346;3.526;2022-09-09T05:01:03;11.18;;;1.30;;
52368;SDS011;38298;50.346;3.526;2022-09-09T05:03:29;13.48;;;1.20;;
52368;SDS011;38298;50.346;3.526;2022-09-09T05:06:01;10.02;;;1.40;;
52368;SDS011;38298;50.346;3.526;2022-09-09T05:08:28;8.23;;;1.30;;
52368;SDS011;38298;50.346;3.526;2022-09-09T05:10:54;6.50;;;1.35;;
52368;SDS011;38298;50.346;3.526;2022-09-09T05:13:20;8.93;;;1.42;;
52368;SDS011;38298;50.346;3.526;2022-09-09T05:15:51;5.90;;;0.95;;
52368;SDS011;38298;50.346;3.526;2022-09-09T05:18:17;4.53;;;1.40;;
52368;SDS011;38298;50.346;3.526;2022-09-09T05:20:43;9.43;;;1.52;;
52368;SDS011;38298;50.346;3.526;2022-09-09T05:23:09;7.90;;;1.75;;
52368;SDS011;38298;50.346;3.526;2022-09-09T05:25:39;9.35;;;1.23;;
52368;SDS011;38298;50.346;3.526;2022-09-09T05:28:08;11.00;;;1.30;;
52368;SDS011;38298;50.346;3.526;2022-09-09T05:30:36;6.00;;;1.08;;
52368;SDS011;38298;50.346;3.526;2022-09-09T05:33:02;7.70;;;1.30;;
52368;SDS011;38298;50.346;3.526;2022-09-09T05:35:28;7.60;;;1.92;;
52368;SDS011;38298;50.346;3.526;2022-09-09T05:37:58;6.88;;;1.20;;
52368;SDS011;38298;50.346;3.526;2022-09-09T05:40:25;10.02;;;1.40;;
52368;SDS011;38298;50.346;3.526;2022-09-09T05:42:51;11.63;;;1.42;;
52368;SDS011;38298;50.346;3.526;2022-09-09T05:45:18;7.22;;;1.15;;
52368;SDS011;38298;50.346;3.526;2022-09-09T05:47:44;9.20;;;2.13;;
52368;SDS011;38298;50.346;3.526;2022-09-09T05:50:10;8.63;;;1.30;;
52368;SDS011;38298;50.346;3.526;2022-09-09T05:52:37;7.55;;;1.60;;
52368;SDS011;38298;50.346;3.526;2022-09-09T05:55:04;7.32;;;1.20;;
52368;SDS011;38298;50.346;3.526;2022-09-09T05:57:30;8.18;;;1.38;;
52368;SDS011;38298;50.346;3.526;2022-09-09T05:59:56;7.90;;;1.10;;
52368;SDS011;38298;50.346;3.526;2022-09-09T06:02:22;10.77;;;1.40;;
52368;SDS011;38298;50.346;3.526;2022-09-09T06:04:48;7.15;;;1.10;;
52368;SDS011;38298;50.346;3.526;2022-09-09T06:07:14;5.22;;;1.75;;
52368;SDS011;38298;50.346;3.526;2022-09-09T06:09:40;7.63;;;1.60;;
52368;SDS011;38298;50.346;3.526;2022-09-09T06:12:06;9.02;;;1.40;;
52368;SDS011;38298;50.346;3.526;2022-09-09T06:14:33;16.27;;;1.80;;
52368;SDS011;38298;50.346;3.526;2022-09-09T06:16:59;3.97;;;1.13;;
52368;SDS011;38298;50.346;3.526;2022-09-09T06:19:25;8.07;;;1.33;;
52368;SDS011;38298;50.346;3.526;2022-09-09T06:21:51;8.80;;;1.20;;
52368;SDS011;38298;50.346;3.526;2022-09-09T06:24:17;6.75;;;1.30;;
52368;SDS011;38298;50.346;3.526;2022-09-09T06:26:45;7.55;;;1.20;;
52368;SDS011;38298;50.346;3.526;2022-09-09T06:29:11;10.45;;;1.60;;
52368;SDS011;38298;50.346;3.526;2022-09-09T06:31:37;10.00;;;1.42;;
52368;SDS011;38298;50.346;3.526;2022-09-09T06:34:04;7.20;;;1.20;;
52368;SDS011;38298;50.346;3.526;2022-09-09T06:36:32;8.10;;;1.48;;
52368;SDS011;38298;50.346;3.526;2022-09-09T06:38:58;9.55;;;1.40;;
52368;SDS011;38298;50.346;3.526;2022-09-09T06:41:26;8.13;;;1.48;;
52368;SDS011;38298;50.346;3.526;2022-09-09T06:43:52;10.75;;;1.10;;
52368;SDS011;38298;50.346;3.526;2022-09-09T06:46:19;11.70;;;1.20;;
52368;SDS011;38298;50.346;3.526;2022-09-09T06:48:46;10.98;;;1.20;;
52368;SDS011;38298;50.346;3.526;2022-09-09T06:51:20;9.07;;;1.25;;
52368;SDS011;38298;50.346;3.526;2022-09-09T06:53:49;10.32;;;1.10;;
52368;SDS011;38298;50.346;3.526;2022-09-09T06:58:45;14.13;;;1.10;;
52368;SDS011;38298;50.346;3.526;2022-09-09T07:01:17;7.97;;;1.10;;
52368;SDS011;38298;50.346;3.526;2022-09-09T07:03:51;6.18;;;1.15;;
52368;SDS011;38298;50.346;3.526;2022-09-09T07:06:19;7.68;;;1.30;;
52368;SDS011;38298;50.346;3.526;2022-09-09T07:08:52;8.57;;;1.08;;
52368;SDS011;38298;50.346;3.526;2022-09-09T07:11:19;7.15;;;1.02;;
52368;SDS011;38298;50.346;3.526;2022-09-09T07:13:46;10.40;;;1.42;;
52368;SDS011;38298;50.346;3.526;2022-09-09T07:16:13;4.75;;;1.30;;
52368;SDS011;38298;50.346;3.526;2022-09-09T07:18:40;11.50;;;1.20;;
52368;SDS011;38298;50.346;3.526;2022-09-09T07:21:07;9.77;;;1.35;;
52368;SDS011;38298;50.346;3.526;2022-09-09T07:23:33;10.27;;;1.02;;
52368;SDS011;38298;50.346;3.526;2022-09-09T07:26:01;5.72;;;0.90;;
52368;SDS011;38298;50.346;3.526;2022-09-09T07:28:27;9.55;;;1.23;;
52368;SDS011;38298;50.346;3.526;2022-09-09T07:30:59;9.07;;;1.50;;
52368;SDS011;38298;50.346;3.526;2022-09-09T07:33:27;10.80;;;1.15;;
52368;SDS011;38298;50.346;3.526;2022-09-09T07:36:01;4.85;;;0.90;;
52368;SDS011;38298;50.346;3.526;2022-09-09T07:38:27;8.90;;;1.42;;
52368;SDS011;38298;50.346;3.526;2022-09-09T07:41:01;9.35;;;0.90;;
52368;SDS011;38298;50.346;3.526;2022-09-09T07:43:28;9.20;;;1.63;;
52368;SDS011;38298;50.346;3.526;2022-09-09T07:45:57;6.72;;;0.90;;
52368;SDS011;38298;50.346;3.526;2022-09-09T07:48:23;8.20;;;1.00;;
52368;SDS011;38298;50.346;3.526;2022-09-09T07:50:49;8.18;;;1.10;;
52368;SDS011;38298;50.346;3.526;2022-09-09T07:53:16;5.53;;;1.05;;
52368;SDS011;38298;50.346;3.526;2022-09-09T07:55:42;9.63;;;0.93;;
52368;SDS011;38298;50.346;3.526;2022-09-09T07:58:08;7.68;;;1.05;;
52368;SDS011;38298;50.346;3.526;2022-09-09T08:00:34;5.25;;;0.90;;
52368;SDS011;38298;50.346;3.526;2022-09-09T08:03:01;8.35;;;1.25;;
52368;SDS011;38298;50.346;3.526;2022-09-09T08:05:27;8.20;;;1.50;;
52368;SDS011;38298;50.346;3.526;2022-09-09T08:07:53;5.10;;;1.20;;
52368;SDS011;38298;50.346;3.526;2022-09-09T08:10:19;10.15;;;1.35;;
52368;SDS011;38298;50.346;3.526;2022-09-09T08:12:45;7.25;;;1.33;;
52368;SDS011;38298;50.346;3.526;2022-09-09T08:15:11;8.50;;;1.40;;
52368;SDS011;38298;50.346;3.526;2022-09-09T08:17:37;6.45;;;1.27;;
52368;SDS011;38298;50.346;3.526;2022-09-09T08:20:03;7.65;;;1.40;;
52368;SDS011;38298;50.346;3.526;2022-09-09T08:22:30;12.10;;;1.27;;
52368;SDS011;38298;50.346;3.526;2022-09-09T08:24:56;6.15;;;1.30;;
52368;SDS011;38298;50.346;3.526;2022-09-09T08:27:22;6.50;;;1.42;;
52368;SDS011;38298;50.346;3.526;2022-09-09T08:29:49;9.93;;;1.30;;
52368;SDS011;38298;50.346;3.526;2022-09-09T08:32:15;11.15;;;1.50;;
52368;SDS011;38298;50.346;3.526;2022-09-09T08:34:41;8.38;;;1.35;;
52368;SDS011;38298;50.346;3.526;2022-09-09T08:37:07;7.88;;;1.15;;
52368;SDS011;38298;50.346;3.526;2022-09-09T08:39:33;11.48;;;1.88;;
52368;SDS011;38298;50.346;3.526;2022-09-09T08:44:31;10.30;;;1.70;;
52368;SDS011;38298;50.346;3.526;2022-09-09T08:52:29;12.25;;;1.88;;
52368;SDS011;38298;50.346;3.526;2022-09-09T08:54:56;10.40;;;1.50;;
52368;SDS011;38298;50.346;3.526;2022-09-09T08:57:25;10.02;;;1.90;;
52368;SDS011;38298;50.346;3.526;2022-09-09T08:59:54;7.33;;;1.03;;
52368;SDS011;38298;50.346;3.526;2022-09-09T09:02:32;8.02;;;1.67;;
52368;SDS011;38298;50.346;3.526;2022-09-09T09:05:17;6.28;;;1.38;;
52368;SDS011;38298;50.346;3.526;2022-09-09T09:08:07;6.03;;;1.10;;
52368;SDS011;38298;50.346;3.526;2022-09-09T09:13:18;8.33;;;1.90;;
52368;SDS011;38298;50.346;3.526;2022-09-09T09:15:56;9.30;;;1.27;;
52368;SDS011;38298;50.346;3.526;2022-09-09T09:18:24;6.28;;;1.10;;
52368;SDS011;38298;50.346;3.526;2022-09-09T09:23:36;7.80;;;1.65;;
52368;SDS011;38298;50.346;3.526;2022-09-09T09:26:06;9.90;;;1.80;;
52368;SDS011;38298;50.346;3.526;2022-09-09T09:28:33;7.88;;;1.65;;
52368;SDS011;38298;50.346;3.526;2022-09-09T09:31:05;9.55;;;1.80;;
52368;SDS011;38298;50.346;3.526;2022-09-09T09:33:50;6.93;;;1.75;;
52368;SDS011;38298;50.346;3.526;2022-09-09T09:36:18;7.00;;;1.52;;
52368;SDS011;38298;50.346;3.526;2022-09-09T09:38:55;8.73;;;1.20;;
52368;SDS011;38298;50.346;3.526;2022-09-09T09:43:56;8.80;;;1.45;;
52368;SDS011;38298;50.346;3.526;2022-09-09T09:46:23;9.23;;;1.40;;
52368;SDS011;38298;50.346;3.526;2022-09-09T09:48:57;4.32;;;1.15;;
52368;SDS011;38298;50.346;3.526;2022-09-09T09:51:23;6.85;;;1.30;;
52368;SDS011;38298;50.346;3.526;2022-09-09T09:53:50;4.78;;;1.10;;
52368;SDS011;38298;50.346;3.526;2022-09-09T09:56:25;8.55;;;1.45;;
52368;SDS011;38298;50.346;3.526;2022-09-09T09:58:52;6.15;;;1.13;;
52368;SDS011;38298;50.346;3.526;2022-09-09T10:01:26;4.15;;;1.25;;
52368;SDS011;38298;50.346;3.526;2022-09-09T10:03:54;4.60;;;1.27;;
52368;SDS011;38298;50.346;3.526;2022-09-09T10:06:33;9.15;;;1.73;;
52368;SDS011;38298;50.346;3.526;2022-09-09T10:09:01;7.68;;;1.83;;
52368;SDS011;38298;50.346;3.526;2022-09-09T10:14:18;7.13;;;1.30;;
52368;SDS011;38298;50.346;3.526;2022-09-09T10:40:06;4.15;;;1.08;;
52368;SDS011;38298;50.346;3.526;2022-09-09T10:42:38;6.75;;;1.20;;
52368;SDS011;38298;50.346;3.526;2022-09-09T10:45:23;6.95;;;1.48;;
52368;SDS011;38298;50.346;3.526;2022-09-09T10:48:00;6.30;;;1.13;;
52368;SDS011;38298;50.346;3.526;2022-09-09T10:50:37;4.93;;;1.08;;
52368;SDS011;38298;50.346;3.526;2022-09-09T10:55:41;7.75;;;1.23;;
52368;SDS011;38298;50.346;3.526;2022-09-09T10:58:10;7.22;;;1.33;;
52368;SDS011;38298;50.346;3.526;2022-09-09T11:00:46;6.53;;;1.23;;
52368;SDS011;38298;50.346;3.526;2022-09-09T11:03:18;6.03;;;1.15;;
52368;SDS011;38298;50.346;3.526;2022-09-09T11:05:49;5.15;;;1.20;;
52368;SDS011;38298;50.346;3.526;2022-09-09T11:08:28;4.70;;;1.30;;
52368;SDS011;38298;50.346;3.526;2022-09-09T11:18:36;7.10;;;1.88;;
52368;SDS011;38298;50.346;3.526;2022-09-09T11:21:04;5.25;;;1.08;;
52368;SDS011;38298;50.346;3.526;2022-09-09T11:23:39;10.93;;;1.45;;
52368;SDS011;38298;50.346;3.526;2022-09-09T11:26:06;5.82;;;1.10;;
52368;SDS011;38298;50.346;3.526;2022-09-09T11:28:40;5.10;;;1.20;;
52368;SDS011;38298;50.346;3.526;2022-09-09T11:41:49;3.92;;;1.00;;
52368;SDS011;38298;50.346;3.526;2022-09-09T11:44:26;11.27;;;1.85;;
52368;SDS011;38298;50.346;3.526;2022-09-09T11:46:54;3.58;;;1.60;;
52368;SDS011;38298;50.346;3.526;2022-09-09T11:49:39;5.88;;;1.10;;
52368;SDS011;38298;50.346;3.526;2022-09-09T11:54:49;8.07;;;1.23;;
52368;SDS011;38298;50.346;3.526;2022-09-09T11:57:20;9.97;;;1.47;;
52368;SDS011;38298;50.346;3.526;2022-09-09T11:59:52;2.85;;;1.00;;
52368;SDS011;38298;50.346;3.526;2022-09-09T12:02:25;5.75;;;1.20;;
52368;SDS011;38298;50.346;3.526;2022-09-09T12:04:55;5.25;;;1.13;;
52368;SDS011;38298;50.346;3.526;2022-09-09T12:14:58;8.85;;;1.13;;
52368;SDS011;38298;50.346;3.526;2022-09-09T12:17:25;5.45;;;1.00;;
52368;SDS011;38298;50.346;3.526;2022-09-09T12:20:03;5.53;;;0.90;;
52368;SDS011;38298;50.346;3.526;2022-09-09T12:22:35;3.42;;;1.10;;
52368;SDS011;38298;50.346;3.526;2022-09-09T12:25:28;3.20;;;1.10;;
52368;SDS011;38298;50.346;3.526;2022-09-09T12:30:32;3.28;;;0.68;;
52368;SDS011;38298;50.346;3.526;2022-09-09T12:33:06;2.38;;;0.77;;
52368;SDS011;38298;50.346;3.526;2022-09-09T12:35:34;3.10;;;0.73;;
52368;SDS011;38298;50.346;3.526;2022-09-09T12:38:03;3.10;;;0.80;;
52368;SDS011;38298;50.346;3.526;2022-09-09T12:40:35;5.00;;;0.98;;
52368;SDS011;38298;50.346;3.526;2022-09-09T12:43:20;7.45;;;0.98;;
52368;SDS011;38298;50.346;3.526;2022-09-09T12:45:47;3.53;;;0.73;;
52368;SDS011;38298;50.346;3.526;2022-09-09T12:48:15;5.32;;;0.73;;
52368;SDS011;38298;50.346;3.526;2022-09-09T12:50:44;6.60;;;1.13;;
52368;SDS011;38298;50.346;3.526;2022-09-09T12:55:51;4.93;;;0.90;;
52368;SDS011;38298;50.346;3.526;2022-09-09T12:58:17;4.88;;;1.20;;
52368;SDS011;38298;50.346;3.526;2022-09-09T13:00:52;7.85;;;1.88;;
52368;SDS011;38298;50.346;3.526;2022-09-09T13:03:21;6.88;;;1.17;;
52368;SDS011;38298;50.346;3.526;2022-09-09T13:05:47;5.75;;;0.90;;
52368;SDS011;38298;50.346;3.526;2022-09-09T13:08:14;1.98;;;0.82;;
52368;SDS011;38298;50.346;3.526;2022-09-09T13:10:48;6.93;;;0.88;;
52368;SDS011;38298;50.346;3.526;2022-09-09T13:13:22;3.90;;;1.00;;
52368;SDS011;38298;50.346;3.526;2022-09-09T13:15:53;3.88;;;1.33;;
52368;SDS011;38298;50.346;3.526;2022-09-09T13:18:23;4.57;;;1.00;;
52368;SDS011;38298;50.346;3.526;2022-09-09T13:20:50;4.75;;;1.15;;
52368;SDS011;38298;50.346;3.526;2022-09-09T13:23:18;4.55;;;1.10;;
52368;SDS011;38298;50.346;3.526;2022-09-09T13:25:54;2.30;;;0.80;;
52368;SDS011;38298;50.346;3.526;2022-09-09T13:28:22;2.88;;;0.82;;
52368;SDS011;38298;50.346;3.526;2022-09-09T13:30:56;4.10;;;0.70;;
52368;SDS011;38298;50.346;3.526;2022-09-09T13:33:28;2.63;;;0.70;;
52368;SDS011;38298;50.346;3.526;2022-09-09T13:35:56;4.65;;;0.55;;
52368;SDS011;38298;50.346;3.526;2022-09-09T13:38:23;1.92;;;0.70;;
52368;SDS011;38298;50.346;3.526;2022-09-09T13:43:27;1.95;;;0.40;;
52368;SDS011;38298;50.346;3.526;2022-09-09T13:45:55;6.13;;;0.98;;
52368;SDS011;38298;50.346;3.526;2022-09-09T13:48:22;3.53;;;0.70;;
52368;SDS011;38298;50.346;3.526;2022-09-09T13:50:59;3.58;;;0.70;;
52368;SDS011;38298;50.346;3.526;2022-09-09T13:53:26;3.53;;;0.73;;
52368;SDS011;38298;50.346;3.526;2022-09-09T13:55:52;2.00;;;0.70;;
52368;SDS011;38298;50.346;3.526;2022-09-09T13:58:19;3.13;;;0.70;;
52368;SDS011;38298;50.346;3.526;2022-09-09T14:00:46;3.17;;;0.63;;
52368;SDS011;38298;50.346;3.526;2022-09-09T14:03:13;6.82;;;0.82;;
52368;SDS011;38298;50.346;3.526;2022-09-09T14:05:39;4.25;;;1.10;;
52368;SDS011;38298;50.346;3.526;2022-09-09T14:08:06;2.92;;;0.50;;
52368;SDS011;38298;50.346;3.526;2022-09-09T14:10:32;2.47;;;0.60;;
52368;SDS011;38298;50.346;3.526;2022-09-09T14:13:02;2.70;;;0.63;;
52368;SDS011;38298;50.346;3.526;2022-09-09T14:15:28;5.40;;;0.55;;
52368;SDS011;38298;50.346;3.526;2022-09-09T14:17:54;1.08;;;0.30;;
52368;SDS011;38298;50.346;3.526;2022-09-09T14:20:21;1.23;;;0.40;;
52368;SDS011;38298;50.346;3.526;2022-09-09T14:22:47;2.97;;;0.43;;
52368;SDS011;38298;50.346;3.526;2022-09-09T14:25:13;2.80;;;0.47;;
52368;SDS011;38298;50.346;3.526;2022-09-09T14:27:40;2.53;;;0.43;;
52368;SDS011;38298;50.346;3.526;2022-09-09T14:30:07;4.80;;;0.52;;
52368;SDS011;38298;50.346;3.526;2022-09-09T14:32:33;3.42;;;0.80;;
52368;SDS011;38298;50.346;3.526;2022-09-09T14:35:00;6.63;;;1.10;;
52368;SDS011;38298;50.346;3.526;2022-09-09T14:37:26;2.63;;;0.93;;
52368;SDS011;38298;50.346;3.526;2022-09-09T14:39:52;5.75;;;1.42;;
52368;SDS011;38298;50.346;3.526;2022-09-09T14:42:19;11.32;;;1.40;;
52368;SDS011;38298;50.346;3.526;2022-09-09T14:44:45;7.75;;;1.15;;
52368;SDS011;38298;50.346;3.526;2022-09-09T14:47:12;5.85;;;0.90;;
52368;SDS011;38298;50.346;3.526;2022-09-09T14:49:38;3.40;;;0.80;;
52368;SDS011;38298;50.346;3.526;2022-09-09T14:52:04;2.38;;;0.60;;
52368;SDS011;38298;50.346;3.526;2022-09-09T14:54:31;5.18;;;0.60;;
52368;SDS011;38298;50.346;3.526;2022-09-09T14:56:57;1.17;;;0.40;;
52368;SDS011;38298;50.346;3.526;2022-09-09T14:59:24;3.10;;;0.52;;
52368;SDS011;38298;50.346;3.526;2022-09-09T15:01:51;1.88;;;0.70;;
52368;SDS011;38298;50.346;3.526;2022-09-09T15:04:18;3.58;;;0.60;;
52368;SDS011;38298;50.346;3.526;2022-09-09T15:06:44;4.43;;;0.93;;
52368;SDS011;38298;50.346;3.526;2022-09-09T15:09:13;7.65;;;0.80;;
52368;SDS011;38298;50.346;3.526;2022-09-09T15:11:39;8.88;;;0.80;;
52368;SDS011;38298;50.346;3.526;2022-09-09T15:14:05;3.63;;;1.13;;
52368;SDS011;38298;50.346;3.526;2022-09-09T15:16:32;2.13;;;0.40;;
52368;SDS011;38298;50.346;3.526;2022-09-09T15:18:58;3.78;;;0.40;;
52368;SDS011;38298;50.346;3.526;2022-09-09T15:21:26;2.55;;;0.43;;
52368;SDS011;38298;50.346;3.526;2022-09-09T15:23:53;6.93;;;0.60;;
52368;SDS011;38298;50.346;3.526;2022-09-09T15:26:19;2.25;;;0.50;;
52368;SDS011;38298;50.346;3.526;2022-09-09T15:28:46;3.45;;;0.70;;
52368;SDS011;38298;50.346;3.526;2022-09-09T15:31:16;6.80;;;1.05;;
52368;SDS011;38298;50.346;3.526;2022-09-09T15:33:53;4.30;;;0.65;;
52368;SDS011;38298;50.346;3.526;2022-09-09T15:36:25;4.47;;;0.70;;
52368;SDS011;38298;50.346;3.526;2022-09-09T15:38:52;2.45;;;0.47;;
52368;SDS011;38298;50.346;3.526;2022-09-09T15:41:19;2.92;;;0.60;;
52368;SDS011;38298;50.346;3.526;2022-09-09T15:43:46;4.80;;;0.60;;
52368;SDS011;38298;50.346;3.526;2022-09-09T15:48:52;5.07;;;1.10;;
52368;SDS011;38298;50.346;3.526;2022-09-09T15:51:19;7.32;;;1.73;;
52368;SDS011;38298;50.346;3.526;2022-09-09T15:53:45;9.35;;;1.98;;
52368;SDS011;38298;50.346;3.526;2022-09-09T15:56:12;9.95;;;3.25;;
52368;SDS011;38298;50.346;3.526;2022-09-09T15:58:38;11.18;;;3.40;;
52368;SDS011;38298;50.346;3.526;2022-09-09T16:01:05;9.02;;;2.30;;
52368;SDS011;38298;50.346;3.526;2022-09-09T16:03:39;11.20;;;2.25;;
52368;SDS011;38298;50.346;3.526;2022-09-09T16:06:11;10.55;;;1.73;;
52368;SDS011;38298;50.346;3.526;2022-09-09T16:08:38;8.07;;;1.20;;
52368;SDS011;38298;50.346;3.526;2022-09-09T16:11:08;6.80;;;1.60;;
52368;SDS011;38298;50.346;3.526;2022-09-09T16:13:39;6.85;;;1.52;;
52368;SDS011;38298;50.346;3.526;2022-09-09T16:16:06;7.80;;;1.65;;
52368;SDS011;38298;50.346;3.526;2022-09-09T16:18:51;10.43;;;1.73;;
52368;SDS011;38298;50.346;3.526;2022-09-09T16:21:25;12.88;;;1.50;;
52368;SDS011;38298;50.346;3.526;2022-09-09T16:23:52;6.30;;;1.27;;
52368;SDS011;38298;50.346;3.526;2022-09-09T16:26:18;8.98;;;1.30;;
52368;SDS011;38298;50.346;3.526;2022-09-09T16:28:45;8.02;;;1.88;;
52368;SDS011;38298;50.346;3.526;2022-09-09T16:31:19;13.75;;;1.60;;
52368;SDS011;38298;50.346;3.526;2022-09-09T16:33:45;8.20;;;1.25;;
52368;SDS011;38298;50.346;3.526;2022-09-09T16:36:14;3.55;;;1.45;;
52368;SDS011;38298;50.346;3.526;2022-09-09T16:38:43;7.13;;;1.52;;
52368;SDS011;38298;50.346;3.526;2022-09-09T16:41:10;4.35;;;1.20;;
52368;SDS011;38298;50.346;3.526;2022-09-09T16:43:37;5.82;;;1.15;;
52368;SDS011;38298;50.346;3.526;2022-09-09T16:46:03;5.95;;;2.05;;
52368;SDS011;38298;50.346;3.526;2022-09-09T16:48:36;7.57;;;1.83;;
52368;SDS011;38298;50.346;3.526;2022-09-09T16:51:03;11.55;;;2.25;;
52368;SDS011;38298;50.346;3.526;2022-09-09T16:53:31;11.20;;;2.40;;